createdAt,value
2018-03-24T00:00:51.032Z,28.45
2018-03-24T00:03:18.649Z,27.33
2018-03-24T00:05:46.113Z,29.73
2018-03-24T00:08:13.653Z,29.10
2018-03-24T00:10:41.139Z,28.73
2018-03-24T00:13:09.039Z,29.60
2018-03-24T00:15:36.461Z,29.67
2018-03-24T00:18:03.918Z,32.77
2018-03-24T00:20:31.550Z,26.70
2018-03-24T00:22:59.172Z,29.70
2018-03-24T00:25:26.679Z,26.20
2018-03-24T00:27:54.147Z,27.48
2018-03-24T00:30:21.616Z,24.63
2018-03-24T00:32:49.265Z,32.17
2018-03-24T00:35:16.747Z,33.00
2018-03-24T00:37:44.206Z,29.37
2018-03-24T00:40:11.677Z,32.67
2018-03-24T00:42:39.154Z,37.05
2018-03-24T00:45:06.615Z,36.20
2018-03-24T00:47:34.155Z,39.28
2018-03-24T00:50:01.600Z,39.10
2018-03-24T00:52:29.148Z,45.30
2018-03-24T00:54:56.584Z,42.10
2018-03-24T00:57:24.055Z,46.08
2018-03-24T00:59:51.487Z,44.53
2018-03-24T01:02:18.928Z,43.75
2018-03-24T01:04:46.485Z,43.13
2018-03-24T01:07:14.030Z,37.47
2018-03-24T01:09:41.499Z,41.03
2018-03-24T01:12:08.960Z,33.85
2018-03-24T01:14:36.442Z,34.00
2018-03-24T01:17:03.891Z,33.10
2018-03-24T01:19:31.968Z,36.50
2018-03-24T01:21:59.433Z,31.33
2018-03-24T01:24:26.910Z,35.60
2018-03-24T01:26:54.463Z,32.03
2018-03-24T01:29:22.183Z,33.58
2018-03-24T01:31:49.677Z,30.85
2018-03-24T01:34:17.250Z,30.55
2018-03-24T01:36:44.760Z,28.15
2018-03-24T01:39:12.513Z,28.12
2018-03-24T01:41:39.954Z,33.47
2018-03-24T01:44:07.416Z,28.25
2018-03-24T01:46:34.872Z,29.35
2018-03-24T01:49:02.350Z,30.90
2018-03-24T01:51:30.187Z,31.23
2018-03-24T01:53:57.719Z,27.95
2018-03-24T01:56:25.164Z,29.60
2018-03-24T01:58:52.629Z,31.23
2018-03-24T02:01:20.731Z,27.65
2018-03-24T02:03:48.264Z,25.83
2018-03-24T02:06:15.793Z,26.58
2018-03-24T02:08:43.266Z,28.75
2018-03-24T02:11:10.723Z,26.65
2018-03-24T02:13:38.197Z,28.45
2018-03-24T02:16:05.622Z,29.50
2018-03-24T02:18:33.091Z,26.40
2018-03-24T02:21:00.548Z,32.10
2018-03-24T02:23:28.445Z,27.40
2018-03-24T02:25:55.904Z,30.30
2018-03-24T02:28:23.344Z,27.25
2018-03-24T02:30:50.913Z,29.35
2018-03-24T02:33:18.692Z,26.15
2018-03-24T02:35:46.160Z,25.67
2018-03-24T02:38:13.681Z,30.23
2018-03-24T02:40:41.148Z,30.48
2018-03-24T02:43:08.598Z,27.83
2018-03-24T02:45:36.285Z,26.35
2018-03-24T02:48:03.750Z,28.10
2018-03-24T02:50:31.271Z,30.67
2018-03-24T02:53:00.765Z,29.25
2018-03-24T02:55:28.208Z,28.20
2018-03-24T02:57:55.717Z,25.70
2018-03-24T03:00:23.191Z,29.83
2018-03-24T03:02:50.652Z,29.45
2018-03-24T03:05:18.201Z,29.87
2018-03-24T03:07:45.638Z,31.58
2018-03-24T03:10:13.108Z,29.63
2018-03-24T03:12:40.533Z,27.85
2018-03-24T03:15:07.989Z,29.87
2018-03-24T03:17:35.447Z,27.70
2018-03-24T03:20:02.916Z,30.88
2018-03-24T03:22:30.384Z,31.65
2018-03-24T03:24:57.874Z,30.08
2018-03-24T03:27:25.347Z,31.00
2018-03-24T03:29:52.789Z,28.62
2018-03-24T03:32:20.250Z,35.28
2018-03-24T03:34:47.690Z,28.87
2018-03-24T03:37:15.159Z,32.63
2018-03-24T03:39:42.615Z,31.65
2018-03-24T03:42:10.054Z,29.87
2018-03-24T03:44:37.483Z,31.60
2018-03-24T03:47:04.999Z,31.80
2018-03-24T03:49:33.100Z,40.83
2018-03-24T03:52:00.597Z,35.30
2018-03-24T03:54:28.700Z,31.98
2018-03-24T03:56:56.170Z,37.00
2018-03-24T03:59:23.646Z,35.10
2018-03-24T04:01:51.084Z,35.05
2018-03-24T04:04:18.548Z,31.70
2018-03-24T04:06:45.978Z,36.03
2018-03-24T04:09:13.435Z,30.83
2018-03-24T04:11:40.996Z,34.80
2018-03-24T04:14:08.446Z,34.75
2018-03-24T04:16:36.652Z,38.10
2018-03-24T04:19:04.111Z,33.53
2018-03-24T04:21:31.556Z,42.70
2018-03-24T04:23:58.986Z,32.80
2018-03-24T04:26:26.494Z,32.38
2018-03-24T04:28:53.957Z,38.05
2018-03-24T04:31:21.418Z,34.25
2018-03-24T04:33:48.862Z,32.50
2018-03-24T04:36:16.400Z,35.63
2018-03-24T04:38:43.858Z,38.80
2018-03-24T04:41:11.317Z,40.35
2018-03-24T04:43:38.785Z,40.50
2018-03-24T04:46:06.244Z,40.55
2018-03-24T04:48:33.686Z,39.53
2018-03-24T04:51:01.143Z,40.88
2018-03-24T04:53:28.604Z,39.88
2018-03-24T04:55:56.050Z,39.95
2018-03-24T04:58:23.518Z,36.25
2018-03-24T05:00:51.074Z,37.55
2018-03-24T05:03:18.523Z,37.22
2018-03-24T05:05:45.988Z,37.65
2018-03-24T05:08:13.407Z,38.15
2018-03-24T05:10:41.348Z,39.15
2018-03-24T05:13:08.889Z,43.45
2018-03-24T05:15:36.538Z,45.40
2018-03-24T05:18:04.059Z,45.80
2018-03-24T05:20:31.644Z,43.78
2018-03-24T05:22:59.334Z,42.10
2018-03-24T05:25:26.774Z,44.22
2018-03-24T05:27:54.232Z,40.90
2018-03-24T05:30:22.414Z,43.75
2018-03-24T05:32:49.858Z,44.65
2018-03-24T05:35:18.136Z,36.00
2018-03-24T05:37:45.793Z,40.78
2018-03-24T05:40:13.365Z,37.22
2018-03-24T05:42:41.011Z,40.20
2018-03-24T05:45:08.508Z,40.10
2018-03-24T05:47:35.933Z,39.70
2018-03-24T05:50:03.476Z,43.65
2018-03-24T05:52:30.911Z,42.00
2018-03-24T05:54:58.376Z,42.00
2018-03-24T05:57:25.817Z,40.83
2018-03-24T05:59:53.284Z,46.75
2018-03-24T06:02:20.773Z,43.85
2018-03-24T06:04:48.233Z,45.50
2018-03-24T06:07:15.678Z,52.13
2018-03-24T06:09:43.198Z,49.05
2018-03-24T06:12:10.740Z,49.03
2018-03-24T06:14:38.200Z,49.95
2018-03-24T06:17:05.718Z,46.67
2018-03-24T06:19:33.168Z,43.40
2018-03-24T06:22:00.616Z,43.67
2018-03-24T06:24:29.110Z,45.20
2018-03-24T06:26:56.617Z,47.87
2018-03-24T06:29:24.107Z,46.07
2018-03-24T06:31:52.088Z,49.57
2018-03-24T06:34:19.526Z,47.83
2018-03-24T06:36:47.712Z,51.63
2018-03-24T06:39:15.249Z,48.20
2018-03-24T06:41:43.247Z,46.53
2018-03-24T06:44:10.672Z,49.23
2018-03-24T06:46:38.132Z,50.10
2018-03-24T06:49:05.594Z,53.20
2018-03-24T06:51:33.031Z,44.70
2018-03-24T06:54:00.501Z,51.53
2018-03-24T06:56:27.941Z,50.00
2018-03-24T06:58:55.418Z,45.57
2018-03-24T07:01:22.843Z,46.83
2018-03-24T07:03:50.386Z,49.97
2018-03-24T07:06:17.946Z,48.10
2018-03-24T07:08:45.708Z,49.50
2018-03-24T07:11:13.377Z,50.33
2018-03-24T07:13:40.851Z,47.90
2018-03-24T07:16:08.375Z,46.50
2018-03-24T07:18:35.954Z,48.63
2018-03-24T07:21:03.434Z,44.97
2018-03-24T07:23:30.873Z,50.97
2018-03-24T07:25:58.337Z,45.27
2018-03-24T07:28:25.787Z,47.77
2018-03-24T07:30:53.253Z,49.57
2018-03-24T07:33:20.701Z,44.60
2018-03-24T07:35:48.204Z,46.13
2018-03-24T07:38:15.684Z,42.60
2018-03-24T07:40:43.298Z,43.87
2018-03-24T07:43:10.786Z,44.40
2018-03-24T07:45:38.280Z,43.33
2018-03-24T07:48:06.476Z,45.83
2018-03-24T07:50:34.034Z,43.33
2018-03-24T07:53:01.582Z,40.13
2018-03-24T07:55:29.028Z,44.17
2018-03-24T07:57:56.561Z,40.53
2018-03-24T08:00:24.107Z,44.40
2018-03-24T08:02:51.701Z,40.43
2018-03-24T08:05:19.298Z,41.00
2018-03-24T08:07:46.752Z,41.33
2018-03-24T08:10:14.425Z,44.67
2018-03-24T08:12:41.992Z,42.27
2018-03-24T08:15:13.954Z,40.13
2018-03-24T08:17:41.411Z,44.07
2018-03-24T08:20:08.889Z,38.63
2018-03-24T08:22:37.209Z,40.20
2018-03-24T08:25:05.234Z,38.90
2018-03-24T08:27:32.683Z,39.47
2018-03-24T08:30:00.137Z,39.13
2018-03-24T08:32:27.591Z,40.63
2018-03-24T08:34:55.228Z,36.07
2018-03-24T08:37:23.635Z,42.20
2018-03-24T08:39:51.105Z,36.00
2018-03-24T08:42:18.555Z,37.77
2018-03-24T08:44:46.699Z,34.80
2018-03-24T08:47:14.136Z,32.07
2018-03-24T08:49:41.695Z,33.53
2018-03-24T08:52:09.251Z,33.10
2018-03-24T08:54:36.737Z,37.67
2018-03-24T08:57:04.213Z,37.30
2018-03-24T08:59:31.727Z,34.03
2018-03-24T09:01:59.852Z,30.80
2018-03-24T09:04:27.281Z,32.13
2018-03-24T09:06:54.758Z,32.60
2018-03-24T09:09:22.183Z,28.50
2018-03-24T09:11:49.632Z,17.47
2018-03-24T09:14:17.102Z,29.70
2018-03-24T09:16:44.549Z,23.47
2018-03-24T09:19:12.012Z,27.43
2018-03-24T09:21:39.461Z,21.17
2018-03-24T09:24:06.986Z,16.00
2018-03-24T09:26:34.435Z,15.87
2018-03-24T09:29:01.912Z,16.67
2018-03-24T09:31:29.345Z,17.10
2018-03-24T09:33:57.554Z,16.67
2018-03-24T09:36:25.940Z,16.87
2018-03-24T09:38:54.527Z,15.50
2018-03-24T09:41:22.798Z,14.50
2018-03-24T09:43:50.376Z,15.60
2018-03-24T09:46:17.953Z,15.93
2018-03-24T09:48:45.466Z,20.40
2018-03-24T09:51:12.969Z,14.07
2018-03-24T09:53:40.405Z,11.63
2018-03-24T09:56:07.853Z,15.27
2018-03-24T09:58:35.330Z,13.93
2018-03-24T10:01:02.784Z,13.10
2018-03-24T10:03:30.213Z,16.47
2018-03-24T10:05:57.690Z,14.00
2018-03-24T10:08:25.308Z,13.83
2018-03-24T10:10:52.828Z,13.30
2018-03-24T10:13:20.268Z,13.43
2018-03-24T10:15:47.715Z,14.50
2018-03-24T10:18:15.163Z,14.43
2018-03-24T10:20:58.289Z,15.07
2018-03-24T10:23:40.414Z,18.00
2018-03-24T10:26:07.881Z,13.40
2018-03-24T10:28:35.344Z,14.60
2018-03-24T10:31:02.864Z,12.13
2018-03-24T10:33:30.344Z,14.67
2018-03-24T10:35:57.829Z,16.43
2018-03-24T10:38:25.257Z,12.80
2018-03-24T10:40:52.967Z,14.43
2018-03-24T10:43:25.989Z,12.30
2018-03-24T10:45:53.560Z,13.10
2018-03-24T10:48:20.989Z,15.50
2018-03-24T10:50:48.480Z,13.50
2018-03-24T10:53:16.099Z,14.10
2018-03-24T10:55:44.564Z,12.83
2018-03-24T10:58:12.151Z,13.87
2018-03-24T11:00:40.064Z,12.77
2018-03-24T11:03:07.525Z,13.03
2018-03-24T11:05:34.966Z,12.07
2018-03-24T11:08:02.448Z,13.80
2018-03-24T11:10:29.931Z,15.33
2018-03-24T11:12:57.382Z,13.77
2018-03-24T11:15:25.560Z,13.53
2018-03-24T11:17:53.028Z,14.80
2018-03-24T11:20:20.501Z,14.80
2018-03-24T11:22:48.355Z,15.90
2018-03-24T11:25:15.949Z,14.77
2018-03-24T11:27:43.661Z,15.17
2018-03-24T11:30:11.453Z,14.50
2018-03-24T11:32:38.889Z,15.80
2018-03-24T11:35:07.804Z,14.10
2018-03-24T11:37:35.236Z,15.23
2018-03-24T11:40:03.042Z,17.10
2018-03-24T11:42:30.480Z,16.53
2018-03-24T11:44:58.667Z,15.80
2018-03-24T11:47:26.141Z,16.60
2018-03-24T11:49:54.159Z,16.50
2018-03-24T11:52:21.601Z,18.00
2018-03-24T11:54:49.509Z,15.20
2018-03-24T11:57:17.967Z,15.27
2018-03-24T11:59:45.426Z,18.93
2018-03-24T12:02:12.921Z,17.00
2018-03-24T12:04:40.452Z,14.80
2018-03-24T12:07:07.936Z,17.27
2018-03-24T12:09:35.391Z,16.00
2018-03-24T12:12:02.837Z,17.77
2018-03-24T12:14:30.304Z,16.90
2018-03-24T12:16:57.782Z,19.70
2018-03-24T12:19:25.225Z,24.40
2018-03-24T12:21:53.162Z,18.50
2018-03-24T12:24:21.038Z,16.27
2018-03-24T12:26:49.088Z,17.23
2018-03-24T12:29:16.525Z,18.23
2018-03-24T12:31:43.993Z,21.23
2018-03-24T12:34:11.504Z,15.40
2018-03-24T12:36:39.528Z,19.03
2018-03-24T12:39:06.965Z,18.20
2018-03-24T12:41:34.467Z,18.20
2018-03-24T12:44:02.004Z,15.17
2018-03-24T12:46:29.514Z,17.57
2018-03-24T12:48:57.117Z,19.90
2018-03-24T12:51:24.673Z,17.83
2018-03-24T12:53:52.105Z,18.10
2018-03-24T12:56:20.009Z,17.00
2018-03-24T12:58:47.481Z,17.83
2018-03-24T13:01:14.952Z,16.10
2018-03-24T13:03:42.790Z,15.43
2018-03-24T13:06:10.239Z,17.23
2018-03-24T13:08:38.004Z,17.70
2018-03-24T13:11:05.460Z,17.67
2018-03-24T13:13:32.923Z,20.57
2018-03-24T13:16:00.404Z,20.50
2018-03-24T13:18:27.885Z,19.97
2018-03-24T13:20:55.742Z,19.63
2018-03-24T13:23:23.227Z,19.50
2018-03-24T13:25:50.684Z,19.33
2018-03-24T13:28:18.209Z,19.03
2018-03-24T13:30:45.738Z,19.80
2018-03-24T13:33:13.204Z,20.73
2018-03-24T13:35:40.677Z,18.50
2018-03-24T13:38:08.136Z,19.20
2018-03-24T13:40:35.635Z,20.27
2018-03-24T13:43:03.089Z,21.77
2018-03-24T13:45:30.557Z,20.03
2018-03-24T13:47:58.007Z,17.70
2018-03-24T13:50:27.267Z,20.60
2018-03-24T13:52:54.705Z,18.67
2018-03-24T13:55:22.284Z,21.00
2018-03-24T13:57:49.771Z,20.70
2018-03-24T14:00:17.252Z,17.13
2018-03-24T14:02:44.778Z,20.77
2018-03-24T14:05:12.227Z,21.13
2018-03-24T14:07:39.709Z,19.53
2018-03-24T14:10:07.197Z,21.77
2018-03-24T14:12:34.668Z,20.80
2018-03-24T14:15:02.453Z,22.03
2018-03-24T14:17:30.193Z,21.27
2018-03-24T14:19:57.722Z,19.90
2018-03-24T14:22:25.645Z,19.50
2018-03-24T14:24:53.097Z,19.10
2018-03-24T14:27:20.637Z,22.13
2018-03-24T14:29:48.138Z,22.10
2018-03-24T14:32:15.700Z,21.30
2018-03-24T14:34:43.158Z,25.60
2018-03-24T14:37:10.626Z,20.00
2018-03-24T14:39:38.140Z,21.17
2018-03-24T14:42:06.611Z,21.70
2018-03-24T14:44:34.748Z,24.67
2018-03-24T14:47:02.275Z,22.73
2018-03-24T14:49:29.824Z,22.20
2018-03-24T14:51:57.664Z,18.20
2018-03-24T14:54:25.182Z,21.97
2018-03-24T14:56:53.387Z,23.10
2018-03-24T14:59:20.900Z,21.70
2018-03-24T15:01:48.360Z,22.30
2018-03-24T15:04:15.830Z,20.57
2018-03-24T15:06:44.205Z,21.83
2018-03-24T15:09:11.665Z,20.20
2018-03-24T15:11:40.012Z,23.93
2018-03-24T15:14:07.731Z,23.67
2018-03-24T15:16:35.354Z,21.07
2018-03-24T15:19:02.972Z,23.67
2018-03-24T15:21:31.300Z,23.30
2018-03-24T15:23:58.827Z,23.27
2018-03-24T15:26:26.309Z,22.10
2018-03-24T15:29:05.655Z,21.80
2018-03-24T15:31:49.216Z,32.37
2018-03-24T15:34:28.642Z,21.87
2018-03-24T15:36:56.104Z,24.40
2018-03-24T15:39:23.572Z,25.70
2018-03-24T15:41:51.437Z,25.00
2018-03-24T15:44:19.295Z,18.03
2018-03-24T15:46:46.808Z,21.90
2018-03-24T15:49:14.401Z,23.00
2018-03-24T15:51:42.067Z,22.10
2018-03-24T15:54:10.015Z,22.23
2018-03-24T15:56:38.028Z,24.40
2018-03-24T15:59:05.598Z,22.47
2018-03-24T16:01:33.747Z,20.57
2018-03-24T16:04:01.149Z,21.73
2018-03-24T16:06:28.651Z,23.50
2018-03-24T16:08:56.207Z,21.73
2018-03-24T16:11:23.753Z,25.07
2018-03-24T16:13:51.189Z,20.80
2018-03-24T16:16:19.017Z,21.00
2018-03-24T16:18:46.777Z,21.03
2018-03-24T16:21:14.395Z,20.00
2018-03-24T16:23:41.933Z,21.70
2018-03-24T16:26:10.137Z,20.10
2018-03-24T16:28:37.746Z,20.23
2018-03-24T16:31:09.173Z,18.57
2018-03-24T16:33:36.677Z,20.40
2018-03-24T16:36:04.555Z,20.70
2018-03-24T16:38:32.006Z,18.37
2018-03-24T16:40:59.678Z,20.23
2018-03-24T16:43:27.688Z,21.13
2018-03-24T16:45:55.550Z,20.13
2018-03-24T16:48:23.448Z,20.70
2018-03-24T16:50:51.379Z,20.03
2018-03-24T16:53:19.386Z,23.53
2018-03-24T16:55:47.206Z,20.73
2018-03-24T16:58:15.117Z,20.90
2018-03-24T17:00:43.147Z,17.80
2018-03-24T17:03:11.123Z,20.23
2018-03-24T17:05:38.858Z,23.77
2018-03-24T17:08:07.047Z,20.33
2018-03-24T17:10:35.363Z,19.10
2018-03-24T17:13:03.362Z,20.47
2018-03-24T17:15:31.314Z,19.17
2018-03-24T17:17:58.863Z,20.80
2018-03-24T17:20:26.495Z,18.87
2018-03-24T17:22:54.120Z,17.80
2018-03-24T17:25:22.048Z,19.60
2018-03-24T17:27:49.506Z,24.30
2018-03-24T17:30:17.478Z,22.77
2018-03-24T17:32:44.905Z,23.60
2018-03-24T17:35:12.354Z,22.03
2018-03-24T17:37:39.842Z,19.43
2018-03-24T17:40:07.455Z,24.03
2018-03-24T17:42:35.982Z,22.33
2018-03-24T17:45:04.107Z,22.50
2018-03-24T17:47:31.578Z,21.57
2018-03-24T17:49:59.484Z,33.20
2018-03-24T17:52:27.010Z,20.60
2018-03-24T17:54:54.516Z,21.17
2018-03-24T17:57:21.976Z,21.13
2018-03-24T17:59:49.933Z,22.00
2018-03-24T18:02:17.638Z,20.77
2018-03-24T18:04:45.174Z,22.57
2018-03-24T18:07:12.749Z,23.13
2018-03-24T18:09:40.286Z,24.43
2018-03-24T18:12:07.912Z,28.30
2018-03-24T18:14:36.097Z,24.43
2018-03-24T18:17:03.535Z,24.90
2018-03-24T18:19:31.779Z,25.83
2018-03-24T18:21:59.345Z,22.67
2018-03-24T18:24:27.061Z,23.47
2018-03-24T18:26:54.573Z,23.90
2018-03-24T18:29:22.079Z,33.90
2018-03-24T18:31:49.572Z,32.10
2018-03-24T18:34:17.198Z,33.63
2018-03-24T18:36:45.180Z,27.33
2018-03-24T18:39:12.722Z,25.80
2018-03-24T18:41:41.195Z,26.90
2018-03-24T18:44:08.654Z,25.20
2018-03-24T18:46:36.221Z,27.73
2018-03-24T18:49:03.738Z,24.60
2018-03-24T18:51:31.382Z,25.50
2018-03-24T18:54:00.639Z,26.40
2018-03-24T18:56:28.614Z,26.13
2018-03-24T18:58:56.141Z,28.40
2018-03-24T19:01:23.788Z,28.90
2018-03-24T19:03:51.254Z,28.57
2018-03-24T19:06:18.826Z,27.93
2018-03-24T19:08:46.293Z,29.60
2018-03-24T19:11:14.073Z,27.60
2018-03-24T19:13:41.536Z,28.67
2018-03-24T19:16:09.133Z,26.60
2018-03-24T19:18:36.764Z,28.60
2018-03-24T19:21:04.653Z,26.93
2018-03-24T19:23:32.330Z,26.60
2018-03-24T19:25:59.997Z,27.83
2018-03-24T19:28:27.615Z,32.27
2018-03-24T19:30:55.408Z,27.30
2018-03-24T19:33:22.880Z,28.63
2018-03-24T19:35:50.370Z,30.20
2018-03-24T19:38:17.881Z,26.63
2018-03-24T19:40:48.654Z,29.47
2018-03-24T19:43:16.102Z,30.90
2018-03-24T19:45:43.786Z,30.53
2018-03-24T19:48:11.273Z,26.73
2018-03-24T19:50:38.936Z,26.27
2018-03-24T19:53:06.963Z,28.80
2018-03-24T19:55:34.474Z,30.57
2018-03-24T19:58:01.948Z,31.13
2018-03-24T20:00:29.383Z,28.20
2018-03-24T20:02:56.869Z,33.57
2018-03-24T20:05:24.323Z,29.00
2018-03-24T20:07:51.784Z,30.63
2018-03-24T20:10:19.632Z,31.70
2018-03-24T20:12:47.178Z,34.60
2018-03-24T20:15:14.675Z,28.83
2018-03-24T20:17:42.118Z,34.37
2018-03-24T20:20:09.585Z,33.83
2018-03-24T20:22:37.111Z,34.03
2018-03-24T20:25:04.640Z,32.63
2018-03-24T20:27:32.148Z,28.77
2018-03-24T20:29:59.593Z,31.90
2018-03-24T20:32:27.047Z,33.57
2018-03-24T20:34:54.531Z,33.60
2018-03-24T20:37:22.390Z,28.20
2018-03-24T20:39:49.844Z,31.00
2018-03-24T20:42:17.308Z,31.00
2018-03-24T20:44:44.773Z,32.63
2018-03-24T20:47:12.233Z,33.70
2018-03-24T20:49:39.691Z,30.40
2018-03-24T20:52:07.219Z,34.27
2018-03-24T20:54:34.690Z,36.33
2018-03-24T20:57:02.151Z,33.60
2018-03-24T20:59:29.616Z,33.27
2018-03-24T21:01:57.089Z,27.73
2018-03-24T21:04:24.544Z,34.77
2018-03-24T21:06:51.994Z,30.70
2018-03-24T21:09:19.465Z,33.23
2018-03-24T21:11:47.599Z,37.43
2018-03-24T21:14:15.482Z,35.27
2018-03-24T21:16:43.502Z,31.90
2018-03-24T21:19:11.549Z,36.20
2018-03-24T21:21:39.086Z,34.50
2018-03-24T21:24:06.839Z,34.80
2018-03-24T21:26:34.305Z,40.70
2018-03-24T21:29:02.483Z,41.77
2018-03-24T21:31:29.992Z,39.43
2018-03-24T21:33:57.666Z,37.27
2018-03-24T21:36:25.642Z,37.67
2018-03-24T21:38:53.679Z,43.10
2018-03-24T21:41:21.483Z,39.70
2018-03-24T21:43:49.104Z,37.70
2018-03-24T21:46:16.673Z,43.03
2018-03-24T21:48:44.172Z,41.83
2018-03-24T21:51:11.616Z,37.30
2018-03-24T21:53:39.135Z,40.30
2018-03-24T21:56:06.571Z,40.97
2018-03-24T21:58:34.075Z,36.93
2018-03-24T22:01:01.501Z,37.87
2018-03-24T22:03:29.578Z,42.70
2018-03-24T22:05:57.060Z,40.13
2018-03-24T22:08:24.503Z,40.23
2018-03-24T22:10:52.014Z,46.00
2018-03-24T22:13:19.464Z,40.80
2018-03-24T22:15:46.924Z,36.43
2018-03-24T22:18:14.373Z,38.87
2018-03-24T22:20:41.834Z,44.00
2018-03-24T22:23:09.260Z,44.63
2018-03-24T22:25:36.725Z,39.83
2018-03-24T22:28:04.146Z,39.57
2018-03-24T22:30:32.215Z,44.53
2018-03-24T22:33:00.532Z,39.40
2018-03-24T22:35:28.014Z,39.17
2018-03-24T22:37:55.469Z,44.03
2018-03-24T22:40:22.945Z,36.03
2018-03-24T22:42:50.431Z,34.93
2018-03-24T22:45:17.911Z,38.53
2018-03-24T22:47:45.335Z,42.20
2018-03-24T22:50:12.781Z,44.47
2018-03-24T22:52:40.268Z,42.37
2018-03-24T22:55:07.858Z,42.37
2018-03-24T22:57:35.337Z,44.97
2018-03-24T23:00:02.761Z,41.73
2018-03-24T23:02:30.238Z,44.10
2018-03-24T23:04:57.744Z,37.63
2018-03-24T23:07:25.216Z,35.67
2018-03-24T23:09:52.647Z,35.40
2018-03-24T23:12:20.097Z,39.20
2018-03-24T23:14:47.579Z,35.80
2018-03-24T23:17:15.069Z,40.47
2018-03-24T23:19:42.519Z,49.03
2018-03-24T23:22:10.026Z,38.93
2018-03-24T23:24:37.486Z,42.10
2018-03-24T23:27:04.913Z,41.67
2018-03-24T23:29:32.378Z,43.60
2018-03-24T23:31:59.804Z,37.53
2018-03-24T23:34:27.416Z,42.77
2018-03-24T23:36:54.871Z,42.92
2018-03-24T23:39:22.523Z,45.38
2018-03-24T23:41:50.008Z,37.35
2018-03-24T23:44:17.478Z,48.27
2018-03-24T23:46:44.927Z,42.78
2018-03-24T23:49:12.440Z,44.13
2018-03-24T23:51:39.877Z,45.43
2018-03-24T23:54:07.747Z,44.13
2018-03-24T23:56:35.225Z,46.28
2018-03-24T23:59:02.664Z,44.42
